createdAt,value
2022-10-26T00:01:20.904Z,7.27
2022-10-26T00:03:47.699Z,4.80
2022-10-26T00:06:24.909Z,5.20
2022-10-26T00:08:52.489Z,4.53
2022-10-26T00:11:19.800Z,8.43
2022-10-26T00:13:47.201Z,9.97
2022-10-26T00:16:22.743Z,8.73
2022-10-26T00:18:50.329Z,5.40
2022-10-26T00:21:18.024Z,6.10
2022-10-26T00:23:45.324Z,9.90
2022-10-26T00:26:12.756Z,7.13
2022-10-26T00:28:39.522Z,7.77
2022-10-26T00:31:09.112Z,6.73
2022-10-26T00:33:36.086Z,7.20
2022-10-26T00:36:02.959Z,5.63
2022-10-26T00:38:30.240Z,9.07
2022-10-26T00:43:27.719Z,5.30
2022-10-26T00:45:57.465Z,6.10
2022-10-26T00:48:30.211Z,8.23
2022-10-26T00:51:00.644Z,5.27
2022-10-26T00:53:28.766Z,6.67
2022-10-26T00:55:56.825Z,5.23
2022-10-26T00:58:24.923Z,10.23
2022-10-26T01:00:52.305Z,8.30
2022-10-26T01:03:20.190Z,6.40
2022-10-26T01:05:49.367Z,3.93
2022-10-26T01:08:18.197Z,7.60
2022-10-26T01:10:45.515Z,4.77
2022-10-26T01:13:13.436Z,5.57
2022-10-26T01:15:48.925Z,10.83
2022-10-26T01:18:40.355Z,5.80
2022-10-26T01:21:33.059Z,6.53
2022-10-26T01:24:08.063Z,3.73
2022-10-26T01:26:37.906Z,8.30
2022-10-26T01:29:28.944Z,5.47
2022-10-26T01:32:04.747Z,4.70
2022-10-26T01:34:38.192Z,7.23
2022-10-26T01:37:12.414Z,8.50
2022-10-26T01:39:48.669Z,6.60
2022-10-26T01:42:18.176Z,8.13
2022-10-26T01:45:00.918Z,7.67
2022-10-26T01:47:30.339Z,8.47
2022-10-26T01:49:59.644Z,4.53
2022-10-26T01:52:27.456Z,3.60
2022-10-26T01:55:07.546Z,6.13
2022-10-26T01:57:36.435Z,16.27
2022-10-26T02:00:11.202Z,4.53
2022-10-26T02:02:37.872Z,5.23
2022-10-26T02:05:22.631Z,5.80
2022-10-26T02:08:04.943Z,2.87
2022-10-26T02:11:04.254Z,8.13
2022-10-26T02:13:40.404Z,3.00
2022-10-26T02:16:27.640Z,4.73
2022-10-26T02:19:05.516Z,5.90
2022-10-26T02:21:40.859Z,6.30
2022-10-26T02:24:10.765Z,7.10
2022-10-26T02:26:39.754Z,9.33
2022-10-26T02:29:10.103Z,5.30
2022-10-26T02:31:38.065Z,9.33
2022-10-26T02:34:09.061Z,8.57
2022-10-26T02:36:39.627Z,5.13
2022-10-26T02:39:08.136Z,8.00
2022-10-26T02:41:36.281Z,7.87
2022-10-26T02:44:13.057Z,9.30
2022-10-26T02:46:40.616Z,9.33
2022-10-26T02:49:07.561Z,4.43
2022-10-26T02:51:43.261Z,12.70
2022-10-26T02:54:09.945Z,4.47
2022-10-26T02:56:57.135Z,12.90
2022-10-26T02:59:27.908Z,8.50
2022-10-26T03:01:55.371Z,7.20
2022-10-26T03:04:29.217Z,6.53
2022-10-26T03:06:56.214Z,7.77
2022-10-26T03:09:25.487Z,8.10
2022-10-26T03:11:53.074Z,6.20
2022-10-26T03:14:20.154Z,5.57
2022-10-26T03:16:46.997Z,9.03
2022-10-26T03:19:13.796Z,7.60
2022-10-26T03:21:42.200Z,5.63
2022-10-26T03:24:09.842Z,6.50
2022-10-26T03:26:36.577Z,8.40
2022-10-26T03:29:03.432Z,5.27
2022-10-26T03:31:30.126Z,10.20
2022-10-26T03:33:56.840Z,9.00
2022-10-26T03:36:23.534Z,5.20
2022-10-26T03:38:50.178Z,3.90
2022-10-26T03:41:16.850Z,9.10
2022-10-26T03:43:43.666Z,7.00
2022-10-26T03:46:10.328Z,8.20
2022-10-26T03:48:37.044Z,6.33
2022-10-26T03:51:03.887Z,10.07
2022-10-26T03:53:30.610Z,6.97
2022-10-26T03:55:57.386Z,8.93
2022-10-26T04:00:57.368Z,9.40
2022-10-26T04:03:24.027Z,9.53
2022-10-26T04:05:50.690Z,7.07
2022-10-26T04:08:17.405Z,4.53
2022-10-26T04:10:46.318Z,11.03
2022-10-26T04:13:13.076Z,3.67
2022-10-26T04:15:39.743Z,15.57
2022-10-26T04:18:06.364Z,10.63
2022-10-26T04:20:34.810Z,9.03
2022-10-26T04:23:04.474Z,10.87
2022-10-26T04:25:33.191Z,5.87
2022-10-26T04:28:02.075Z,10.10
2022-10-26T04:30:28.848Z,14.47
2022-10-26T04:32:55.565Z,4.30
2022-10-26T04:35:22.264Z,8.67
2022-10-26T04:37:49.042Z,4.33
2022-10-26T04:40:16.811Z,4.60
2022-10-26T04:42:45.030Z,64.37
2022-10-26T04:45:13.428Z,12.90
2022-10-26T04:47:40.260Z,4.63
2022-10-26T04:50:08.006Z,7.70
2022-10-26T04:52:35.507Z,4.20
2022-10-26T04:55:05.848Z,5.83
2022-10-26T04:57:33.671Z,7.03
2022-10-26T05:00:01.728Z,7.53
2022-10-26T05:02:29.208Z,9.07
2022-10-26T05:04:56.029Z,5.27
2022-10-26T05:07:22.726Z,7.27
2022-10-26T05:09:49.385Z,7.73
2022-10-26T05:12:16.072Z,7.33
2022-10-26T05:14:42.732Z,7.30
2022-10-26T05:17:09.368Z,8.47
2022-10-26T05:19:36.026Z,10.00
2022-10-26T05:22:02.665Z,8.47
2022-10-26T05:24:29.362Z,9.33
2022-10-26T05:26:56.076Z,8.67
2022-10-26T05:29:22.776Z,7.40
2022-10-26T05:31:49.448Z,6.03
2022-10-26T05:34:16.076Z,17.37
2022-10-26T05:36:42.705Z,9.93
2022-10-26T05:39:09.890Z,6.77
2022-10-26T05:41:36.511Z,9.97
2022-10-26T05:44:03.240Z,5.73
2022-10-26T05:46:29.858Z,5.63
2022-10-26T05:48:56.663Z,10.50
2022-10-26T05:51:23.276Z,3.90
2022-10-26T05:53:54.296Z,7.03
2022-10-26T05:56:33.873Z,6.97
2022-10-26T05:59:00.876Z,18.03
2022-10-26T06:01:37.118Z,9.67
2022-10-26T06:04:30.268Z,11.47
2022-10-26T06:06:58.707Z,8.53
2022-10-26T06:09:26.155Z,5.70
2022-10-26T06:11:53.131Z,15.87
2022-10-26T06:14:20.174Z,38.53
2022-10-26T06:17:06.758Z,8.90
2022-10-26T06:20:22.983Z,6.50
2022-10-26T06:22:52.530Z,8.97
2022-10-26T06:25:56.181Z,9.07
2022-10-26T06:28:41.406Z,5.67
2022-10-26T06:31:08.220Z,8.50
2022-10-26T06:33:34.935Z,5.23
2022-10-26T06:36:10.827Z,11.20
2022-10-26T06:38:39.857Z,5.20
2022-10-26T06:41:06.905Z,5.77
2022-10-26T06:43:35.699Z,7.50
2022-10-26T06:46:20.230Z,7.43
2022-10-26T06:48:58.253Z,16.30
2022-10-26T06:51:27.564Z,7.50
2022-10-26T06:54:17.513Z,6.13
2022-10-26T06:56:46.072Z,5.93
2022-10-26T06:59:48.160Z,5.77
2022-10-26T07:02:15.159Z,7.83
2022-10-26T07:04:42.865Z,7.00
2022-10-26T07:07:14.055Z,4.70
2022-10-26T07:09:40.789Z,6.40
2022-10-26T07:12:07.612Z,10.17
2022-10-26T07:14:34.393Z,8.17
2022-10-26T07:17:01.307Z,10.50
2022-10-26T07:19:27.991Z,7.47
2022-10-26T07:22:01.590Z,10.83
2022-10-26T07:24:28.802Z,6.43
2022-10-26T07:26:56.416Z,10.07
2022-10-26T07:29:24.407Z,8.80
2022-10-26T07:31:51.598Z,7.80
2022-10-26T07:34:18.236Z,6.23
2022-10-26T07:36:44.968Z,8.23
2022-10-26T07:39:11.828Z,6.17
2022-10-26T07:41:38.570Z,10.00
2022-10-26T07:44:05.342Z,8.97
2022-10-26T07:46:31.975Z,6.23
2022-10-26T07:48:58.633Z,6.50
2022-10-26T07:51:25.693Z,5.00
2022-10-26T07:53:52.800Z,6.73
2022-10-26T07:56:19.464Z,8.60
2022-10-26T07:58:46.140Z,7.47
2022-10-26T08:01:15.631Z,6.07
2022-10-26T08:03:42.798Z,6.47
2022-10-26T08:06:10.427Z,8.43
2022-10-26T08:08:37.534Z,11.10
2022-10-26T08:11:05.055Z,10.63
2022-10-26T08:13:32.204Z,9.97
2022-10-26T08:16:04.764Z,7.43
2022-10-26T08:18:31.556Z,5.97
2022-10-26T08:21:10.791Z,7.17
2022-10-26T08:23:39.161Z,7.57
2022-10-26T08:26:06.013Z,6.33
2022-10-26T08:28:32.661Z,7.97
2022-10-26T08:30:59.426Z,6.33
2022-10-26T08:33:26.182Z,6.10
2022-10-26T08:36:00.086Z,3.53
2022-10-26T08:38:27.331Z,4.47
2022-10-26T08:40:54.544Z,4.97
2022-10-26T08:43:34.650Z,3.60
2022-10-26T08:46:09.296Z,7.03
2022-10-26T08:48:43.763Z,10.07
2022-10-26T08:51:17.986Z,3.60
2022-10-26T08:54:05.950Z,3.97
2022-10-26T08:56:40.794Z,5.20
2022-10-26T08:59:20.439Z,4.37
2022-10-26T09:01:47.124Z,4.87
2022-10-26T09:04:13.835Z,6.50
2022-10-26T09:07:12.445Z,3.33
2022-10-26T09:09:57.190Z,4.13
2022-10-26T09:12:37.326Z,8.33
2022-10-26T09:15:28.757Z,7.00
2022-10-26T09:18:17.140Z,10.47
2022-10-26T09:20:58.024Z,4.93
2022-10-26T09:23:45.306Z,4.50
2022-10-26T09:26:15.089Z,5.97
2022-10-26T09:28:44.661Z,5.20
2022-10-26T09:31:15.987Z,7.07
2022-10-26T09:33:42.803Z,5.13
2022-10-26T09:36:18.093Z,7.63
2022-10-26T09:38:56.099Z,5.27
2022-10-26T09:41:32.134Z,4.70
2022-10-26T09:44:05.510Z,7.17
2022-10-26T09:46:45.146Z,5.27
2022-10-26T09:49:15.351Z,9.33
2022-10-26T09:51:44.096Z,4.37
2022-10-26T09:54:16.953Z,7.13
2022-10-26T09:56:55.928Z,5.53
2022-10-26T09:59:25.357Z,5.53
2022-10-26T10:01:52.217Z,8.03
2022-10-26T10:04:25.937Z,5.63
2022-10-26T10:07:01.408Z,4.87
2022-10-26T10:09:28.065Z,5.53
2022-10-26T10:12:01.134Z,7.57
2022-10-26T10:14:54.400Z,5.30
2022-10-26T10:17:23.307Z,5.83
2022-10-26T10:19:51.172Z,2.83
2022-10-26T10:22:24.378Z,3.47
2022-10-26T10:25:01.701Z,4.17
2022-10-26T10:27:30.360Z,9.70
2022-10-26T10:30:03.045Z,2.70
2022-10-26T10:32:35.637Z,4.50
2022-10-26T10:35:29.481Z,4.87
2022-10-26T10:37:56.838Z,3.93
2022-10-26T10:40:26.414Z,7.70
2022-10-26T10:43:02.306Z,4.50
2022-10-26T10:45:30.991Z,4.63
2022-10-26T10:48:26.215Z,6.60
2022-10-26T10:50:59.703Z,5.60
2022-10-26T10:53:34.764Z,5.37
2022-10-26T10:56:17.497Z,4.20
2022-10-26T10:58:50.059Z,7.20
2022-10-26T11:01:22.479Z,6.63
2022-10-26T11:04:27.063Z,7.80
2022-10-26T11:06:59.586Z,8.83
2022-10-26T11:09:30.230Z,5.97
2022-10-26T11:12:18.497Z,3.10
2022-10-26T11:15:00.356Z,3.53
2022-10-26T11:17:32.290Z,2.67
2022-10-26T11:20:14.851Z,4.63
2022-10-26T11:22:54.211Z,7.53
2022-10-26T11:25:45.787Z,5.07
2022-10-26T11:28:36.926Z,9.03
2022-10-26T11:31:12.456Z,5.03
2022-10-26T11:33:48.120Z,2.67
2022-10-26T11:36:24.254Z,3.80
2022-10-26T11:39:32.586Z,4.63
2022-10-26T11:42:09.559Z,5.67
2022-10-26T11:44:51.823Z,5.33
2022-10-26T11:47:45.723Z,6.23
2022-10-26T11:50:19.046Z,5.93
2022-10-26T11:53:10.787Z,5.00
2022-10-26T11:55:39.273Z,4.50
2022-10-26T11:58:06.374Z,5.13
2022-10-26T12:00:34.552Z,2.33
2022-10-26T12:03:14.340Z,6.60
2022-10-26T12:05:40.982Z,12.20
2022-10-26T12:08:30.933Z,8.37
2022-10-26T12:11:36.165Z,7.13
2022-10-26T12:14:21.651Z,3.13
2022-10-26T12:17:09.672Z,5.90
2022-10-26T12:19:46.346Z,2.93
2022-10-26T12:22:16.052Z,3.97
2022-10-26T12:24:47.209Z,7.73
2022-10-26T12:27:39.493Z,3.93
2022-10-26T12:30:11.952Z,5.37
2022-10-26T12:32:41.508Z,6.87
2022-10-26T12:35:43.005Z,5.27
2022-10-26T12:38:21.570Z,4.13
2022-10-26T12:40:49.540Z,2.63
2022-10-26T12:43:16.162Z,4.40
2022-10-26T12:45:44.532Z,3.37
2022-10-26T12:48:39.748Z,3.50
2022-10-26T12:51:39.960Z,7.13
2022-10-26T12:54:45.906Z,5.07
2022-10-26T12:57:21.334Z,3.73
2022-10-26T13:00:12.728Z,3.83
2022-10-26T13:03:02.901Z,2.00
2022-10-26T13:05:29.516Z,7.60
2022-10-26T13:08:06.673Z,3.10
2022-10-26T13:10:34.743Z,3.10
2022-10-26T13:13:05.284Z,2.53
2022-10-26T13:15:55.257Z,2.57
2022-10-26T13:18:22.669Z,2.33
2022-10-26T13:21:13.427Z,3.60
2022-10-26T13:23:43.206Z,5.47
2022-10-26T13:26:14.815Z,4.20
2022-10-26T13:28:41.469Z,4.33
2022-10-26T13:31:37.447Z,2.77
2022-10-26T13:34:20.144Z,3.80
2022-10-26T13:37:05.552Z,5.33
2022-10-26T13:39:42.389Z,3.70
2022-10-26T13:42:15.961Z,6.73
2022-10-26T13:44:53.142Z,7.57
2022-10-26T13:47:25.687Z,7.47
2022-10-26T13:49:56.668Z,6.13
2022-10-26T13:52:36.635Z,3.30
2022-10-26T13:55:09.754Z,2.80
2022-10-26T13:57:42.087Z,5.27
2022-10-26T14:00:20.030Z,6.47
2022-10-26T14:02:47.083Z,4.73
2022-10-26T14:05:17.285Z,4.83
2022-10-26T14:07:56.610Z,5.17
2022-10-26T14:10:42.208Z,3.93
2022-10-26T14:13:19.742Z,2.97
2022-10-26T14:15:47.240Z,5.00
2022-10-26T14:18:23.846Z,4.17
2022-10-26T14:20:58.092Z,2.77
2022-10-26T14:23:45.429Z,5.10
2022-10-26T14:26:23.828Z,4.10
2022-10-26T14:28:54.436Z,3.53
2022-10-26T14:31:24.218Z,2.40
2022-10-26T14:33:52.041Z,3.63
2022-10-26T14:36:21.342Z,3.60
2022-10-26T14:38:52.710Z,5.53
2022-10-26T14:41:20.581Z,4.00
2022-10-26T14:43:47.622Z,2.97
2022-10-26T14:46:17.082Z,3.10
2022-10-26T14:48:58.672Z,5.73
2022-10-26T14:51:35.731Z,6.53
2022-10-26T14:54:03.887Z,2.67
2022-10-26T14:56:43.342Z,2.97
2022-10-26T14:59:30.386Z,6.50
2022-10-26T15:02:07.621Z,5.67
2022-10-26T15:04:37.733Z,6.27
2022-10-26T15:07:17.756Z,7.93
2022-10-26T15:09:45.847Z,4.37
2022-10-26T15:12:28.403Z,8.80
2022-10-26T15:14:56.699Z,7.60
2022-10-26T15:17:27.735Z,15.30
2022-10-26T15:19:55.503Z,7.03
2022-10-26T15:22:31.832Z,10.53
2022-10-26T15:25:03.953Z,6.40
2022-10-26T15:27:30.889Z,8.77
2022-10-26T15:30:15.127Z,68.47
2022-10-26T15:32:41.955Z,15.80
2022-10-26T15:35:11.665Z,4.90
2022-10-26T15:37:39.106Z,5.37
2022-10-26T15:40:06.833Z,6.27
2022-10-26T15:42:38.069Z,3.53
2022-10-26T15:45:26.124Z,9.00
2022-10-26T15:47:55.482Z,6.50
2022-10-26T15:50:27.799Z,6.27
2022-10-26T15:53:06.109Z,5.00
2022-10-26T15:55:32.873Z,7.13
2022-10-26T15:57:59.643Z,8.53
2022-10-26T16:00:26.283Z,6.93
2022-10-26T16:02:53.068Z,14.67
2022-10-26T16:05:19.854Z,5.27
2022-10-26T16:07:47.840Z,5.13
2022-10-26T16:10:22.660Z,8.67
2022-10-26T16:12:50.235Z,8.70
2022-10-26T16:15:23.306Z,9.27
2022-10-26T16:17:51.436Z,9.07
2022-10-26T16:20:22.809Z,6.80
2022-10-26T16:22:50.372Z,5.10
2022-10-26T16:25:19.777Z,13.33
2022-10-26T16:27:47.205Z,8.70
2022-10-26T16:30:14.789Z,9.37
2022-10-26T16:32:42.463Z,32.07
2022-10-26T16:35:10.640Z,23.63
2022-10-26T16:37:37.553Z,7.80
2022-10-26T16:40:05.389Z,10.90
2022-10-26T16:42:32.522Z,8.73
2022-10-26T16:45:02.607Z,8.80
2022-10-26T16:47:32.170Z,6.93
2022-10-26T16:49:58.858Z,10.27
2022-10-26T16:52:25.532Z,7.00
2022-10-26T16:54:52.234Z,8.60
2022-10-26T16:57:18.890Z,10.40
2022-10-26T16:59:45.585Z,6.10
2022-10-26T17:02:14.777Z,5.77
2022-10-26T17:04:41.542Z,8.43
2022-10-26T17:07:08.286Z,13.13
2022-10-26T17:09:35.002Z,11.90
2022-10-26T17:12:02.198Z,14.00
2022-10-26T17:14:29.111Z,9.47
2022-10-26T17:16:55.797Z,13.50
2022-10-26T17:19:22.467Z,15.10
2022-10-26T17:21:49.110Z,31.63
2022-10-26T17:24:15.817Z,13.50
2022-10-26T17:26:42.661Z,11.13
2022-10-26T17:29:12.119Z,15.10
2022-10-26T17:31:39.171Z,11.03
2022-10-26T17:34:05.975Z,6.03
2022-10-26T17:36:32.753Z,11.73
2022-10-26T17:39:00.820Z,7.93
2022-10-26T17:41:28.628Z,8.00
2022-10-26T17:43:55.331Z,13.63
2022-10-26T17:46:24.356Z,9.20
2022-10-26T17:48:58.780Z,16.97
2022-10-26T17:51:27.499Z,13.60
2022-10-26T17:53:54.640Z,13.47
2022-10-26T17:56:23.833Z,6.47
2022-10-26T17:58:54.437Z,7.93
2022-10-26T18:01:21.542Z,5.37
2022-10-26T18:03:48.563Z,7.33
2022-10-26T18:06:17.175Z,5.70
2022-10-26T18:08:45.343Z,6.83
2022-10-26T18:11:15.141Z,12.47
2022-10-26T18:13:41.990Z,10.13
2022-10-26T18:16:27.896Z,13.00
2022-10-26T18:19:01.035Z,16.93
2022-10-26T18:21:31.736Z,13.97
2022-10-26T18:23:58.905Z,18.53
2022-10-26T18:26:30.875Z,15.10
2022-10-26T18:28:58.790Z,49.33
2022-10-26T18:31:27.549Z,74.40
2022-10-26T18:33:59.182Z,30.37
2022-10-26T18:36:26.819Z,20.03
2022-10-26T18:38:54.460Z,18.97
2022-10-26T18:41:22.770Z,15.33
2022-10-26T18:43:51.220Z,13.07
2022-10-26T18:46:24.029Z,15.03
2022-10-26T18:48:51.856Z,13.17
2022-10-26T18:51:28.619Z,20.83
2022-10-26T18:53:57.303Z,13.03
2022-10-26T18:56:24.986Z,10.00
2022-10-26T18:58:56.220Z,9.90
2022-10-26T19:01:28.719Z,12.20
2022-10-26T19:04:01.080Z,11.93
2022-10-26T19:06:30.901Z,19.03
2022-10-26T19:08:58.219Z,7.93
2022-10-26T19:11:26.763Z,7.87
2022-10-26T19:13:54.007Z,8.77
2022-10-26T19:16:43.971Z,14.53
2022-10-26T19:19:10.502Z,11.27
2022-10-26T19:21:37.296Z,9.07
2022-10-26T19:24:04.168Z,9.23
2022-10-26T19:26:36.046Z,15.50
2022-10-26T19:29:07.058Z,12.57
2022-10-26T19:31:35.670Z,15.43
2022-10-26T19:34:03.053Z,8.57
2022-10-26T19:36:30.123Z,16.37
2022-10-26T19:38:57.310Z,16.37
2022-10-26T19:41:26.468Z,29.77
2022-10-26T19:43:54.946Z,38.57
2022-10-26T19:46:24.847Z,55.77
2022-10-26T19:48:57.075Z,40.43
2022-10-26T19:51:24.925Z,30.13
2022-10-26T19:53:52.941Z,16.73
2022-10-26T19:56:21.560Z,24.17
2022-10-26T19:58:50.779Z,18.37
2022-10-26T20:01:18.018Z,17.90
2022-10-26T20:03:45.857Z,18.90
2022-10-26T20:06:13.164Z,19.37
2022-10-26T20:08:41.805Z,18.60
2022-10-26T20:11:13.076Z,18.43
2022-10-26T20:13:43.343Z,16.83
2022-10-26T20:16:10.701Z,13.60
2022-10-26T20:18:37.409Z,15.53
2022-10-26T20:21:11.317Z,9.97
2022-10-26T20:23:38.062Z,13.23
2022-10-26T20:28:36.506Z,10.93
2022-10-26T20:31:03.174Z,14.07
2022-10-26T20:33:29.826Z,36.47
2022-10-26T20:36:00.239Z,32.67
2022-10-26T20:38:27.512Z,28.83
2022-10-26T20:40:56.834Z,24.57
2022-10-26T20:43:24.465Z,25.83
2022-10-26T20:45:51.800Z,23.00
2022-10-26T20:48:19.053Z,25.30
2022-10-26T20:51:07.140Z,29.33
2022-10-26T20:53:43.092Z,21.50
2022-10-26T20:56:23.890Z,20.27
2022-10-26T20:58:55.674Z,16.13
2022-10-26T21:01:27.485Z,19.23
2022-10-26T21:03:55.855Z,17.30
2022-10-26T21:06:23.416Z,11.10
2022-10-26T21:08:51.557Z,12.97
2022-10-26T21:11:19.731Z,7.77
2022-10-26T21:13:47.919Z,9.47
2022-10-26T21:16:15.331Z,12.00
2022-10-26T21:18:42.184Z,10.37
2022-10-26T21:21:09.238Z,10.07
2022-10-26T21:23:38.749Z,9.33
2022-10-26T21:26:06.095Z,14.67
2022-10-26T21:28:35.182Z,15.17
2022-10-26T21:31:12.213Z,11.03
2022-10-26T21:33:39.829Z,14.13
2022-10-26T21:36:08.687Z,14.10
2022-10-26T21:38:35.915Z,12.63
2022-10-26T21:41:08.488Z,16.93
2022-10-26T21:43:36.515Z,10.17
2022-10-26T21:46:04.251Z,10.10
2022-10-26T21:48:32.457Z,17.23
2022-10-26T21:51:02.061Z,10.60
2022-10-26T21:53:28.818Z,12.97
2022-10-26T21:56:06.513Z,19.33
2022-10-26T21:58:33.992Z,17.40
2022-10-26T22:01:14.442Z,18.87
2022-10-26T22:03:42.246Z,14.17
2022-10-26T22:06:12.910Z,14.63
2022-10-26T22:08:40.162Z,22.53
2022-10-26T22:11:15.506Z,29.17
2022-10-26T22:13:43.852Z,34.60
2022-10-26T22:16:15.180Z,42.83
2022-10-26T22:18:44.545Z,27.53
2022-10-26T22:21:12.301Z,27.33
2022-10-26T22:23:40.327Z,25.70
2022-10-26T22:26:18.470Z,19.40
2022-10-26T22:28:46.879Z,16.37
2022-10-26T22:31:17.144Z,18.93
2022-10-26T22:33:44.215Z,20.50
2022-10-26T22:36:13.600Z,12.67
2022-10-26T22:38:40.701Z,12.37
2022-10-26T22:41:07.978Z,10.03
2022-10-26T22:43:34.624Z,6.90
2022-10-26T22:46:06.760Z,10.33
2022-10-26T22:48:34.579Z,7.17
2022-10-26T22:51:17.138Z,13.70
2022-10-26T22:53:43.873Z,8.10
2022-10-26T22:56:12.367Z,8.17
2022-10-26T22:58:40.132Z,8.73
2022-10-26T23:01:31.263Z,16.97
2022-10-26T23:03:58.826Z,51.10
2022-10-26T23:06:28.266Z,77.43
2022-10-26T23:08:54.944Z,57.23
2022-10-26T23:11:23.321Z,50.73
2022-10-26T23:13:54.189Z,30.43
2022-10-26T23:16:21.112Z,39.07
2022-10-26T23:18:48.617Z,38.03
2022-10-26T23:21:16.544Z,38.30
2022-10-26T23:23:43.204Z,37.43
2022-10-26T23:26:18.354Z,42.53
2022-10-26T23:28:45.678Z,35.83
2022-10-26T23:31:18.450Z,34.37
2022-10-26T23:33:45.766Z,36.03
2022-10-26T23:36:12.594Z,34.43
2022-10-26T23:38:39.302Z,27.43
2022-10-26T23:41:08.248Z,24.20
2022-10-26T23:43:37.494Z,29.13
2022-10-26T23:46:04.606Z,24.13
2022-10-26T23:48:31.287Z,18.00
2022-10-26T23:50:57.973Z,9.30
2022-10-26T23:53:25.585Z,8.77
2022-10-26T23:55:52.399Z,7.50
2022-10-26T23:58:19.342Z,11.27
